Ana Sayfa
METAR-TAF:

METAR-TAF

Havaalanları :

Killeen, Teksas, Amerika Birleşik Devletleri

Enlem: 31-05N, Boylam: 097-41W, yükseklik: 258 m

Güncel hava durumu gözlemi

Rapor saat 23:56 UTC de 7 saat ve 36 dakika önce yapıldı.
Rüzgar doğu/güneydoğudan 12 kt ve 19 kt'a kadar ani rüzgarlar
Sıcaklık 15°C
Nem 82%
Basınç 1012 hPa
Görüş mesafesi: 16.1 km
Açık gökyüzü

METAR: KILE 272356Z AUTO 12012G19KT 10SM CLR 15/12 A2989 RMK AO2 SLP119 T01500117 10189 20150 56011

Saat: 01:32 (07:32 UTC)


TAF: eksik

4.000'den fazla havaalanı için hava durumu gözlemleri ve tahminleri (METAR ve TAF raporları).

Kullanılabilir istasyonlar harita üzerinde sarı ve kırmızı noktalarla gösterilir.

İstasyonun adını görmek için fareyi noktanın üzerinde gezdirin.

Sonrasında hava gözlem ve tahminlerini görmek için tıklayın.

Haritayı değiştirmek için: yaklaştırmak için siyah artı işaretli yeşil düğmeye ve uzaklaştırmak için de eksi işaretli düğmeye hızla tıklayın; bitişik haritalar için yeşil okları kullanın.


METAR-TAF: